Time;durP1;ratioP1;P1;durP2;ratioP2;P2;SDS_P1;SDS_P2;PMS_P1;PMS_P2;Temp;Humidity;BMP_temperature;BMP_pressure;BME280_temperature;BME280_humidity;BME280_pressure;Samples;Min_cycle;Max_cycle;Signal;HPM_P1;HPM_P2
2021/04/10 00:01:36;;;;;;;8.02;3.15;;;8.60;72.40;;;;;;5035543;28;20515;-69
2021/04/10 00:04:04;;;;;;;10.27;3.63;;;8.60;72.50;;;;;;5034092;28;20070;-68
2021/04/10 00:06:30;;;;;;;12.15;3.60;;;8.50;72.80;;;;;;5033948;28;20033;-69
2021/04/10 00:08:56;;;;;;;11.98;3.35;;;8.50;72.90;;;;;;5035027;28;20396;-69
2021/04/10 00:11:21;;;;;;;10.32;3.25;;;8.40;72.90;;;;;;5033860;28;20018;-69
2021/04/10 00:13:47;;;;;;;9.30;3.38;;;8.40;73.20;;;;;;5035676;28;20022;-70
2021/04/10 00:16:13;;;;;;;8.05;3.40;;;8.40;73.70;;;;;;5033615;28;20034;-70
2021/04/10 00:18:38;;;;;;;12.13;3.92;;;8.30;73.40;;;;;;5035282;28;20036;-71
2021/04/10 00:21:04;;;;;;;8.32;3.45;;;8.30;73.80;;;;;;5033668;28;20489;-69
2021/04/10 00:23:30;;;;;;;6.30;3.20;;;8.20;73.80;;;;;;5035264;28;20389;-69
2021/04/10 00:25:56;;;;;;;8.85;3.45;;;8.20;74.20;;;;;;5033633;28;20378;-69
2021/04/10 00:28:21;;;;;;;11.70;3.20;;;8.20;74.40;;;;;;5034972;28;20038;-70
2021/04/10 00:30:47;;;;;;;8.38;3.10;;;8.10;74.40;;;;;;5033677;28;20017;-70
2021/04/10 00:33:13;;;;;;;8.43;2.92;;;8.10;74.20;;;;;;5035235;28;20063;-69
2021/04/10 00:35:38;;;;;;;8.65;2.90;;;8.10;74.40;;;;;;5033546;28;20036;-70
2021/04/10 00:38:04;;;;;;;9.35;3.00;;;8.00;74.50;;;;;;5034740;28;20106;-70
2021/04/10 00:40:30;;;;;;;7.70;2.90;;;8.00;74.40;;;;;;5033407;28;20100;-70
2021/04/10 00:42:55;;;;;;;8.10;2.80;;;8.00;74.50;;;;;;5033401;28;20032;-70
2021/04/10 00:45:21;;;;;;;5.82;2.70;;;8.00;74.50;;;;;;5034665;28;20445;-69
2021/04/10 00:47:46;;;;;;;8.95;3.13;;;7.90;74.80;;;;;;5034597;28;20059;-70
2021/04/10 00:50:12;;;;;;;5.88;2.55;;;7.80;74.70;;;;;;5033245;28;20461;-70
2021/04/10 00:52:40;;;;;;;8.15;2.78;;;7.80;74.80;;;;;;5034886;28;20061;-70
2021/04/10 00:55:07;;;;;;;9.20;2.75;;;7.80;75.00;;;;;;5034387;28;20101;-69
2021/04/10 00:57:33;;;;;;;7.30;2.28;;;7.80;74.80;;;;;;5034962;28;20025;-70
2021/04/10 00:59:59;;;;;;;9.02;2.83;;;7.80;74.90;;;;;;5034167;28;20056;-70
2021/04/10 01:02:26;;;;;;;10.52;3.17;;;7.80;75.10;;;;;;5034331;28;20025;-70
2021/04/10 01:04:53;;;;;;;7.57;2.40;;;7.80;75.20;;;;;;5034553;28;20078;-70
2021/04/10 01:07:18;;;;;;;7.00;2.55;;;7.70;75.20;;;;;;5032785;28;20079;-70
2021/04/10 01:09:48;;;;;;;8.10;2.58;;;7.70;75.10;;;;;;5034153;28;20017;-70
2021/04/10 01:12:37;;;;;;;6.97;2.58;;;7.70;75.10;;;;;;5032869;28;20014;-70
2021/04/10 01:15:23;;;;;;;5.97;2.58;;;7.70;75.20;;;;;;5033920;28;20025;-70
2021/04/10 01:18:04;;;;;;;6.60;2.55;;;7.70;75.20;;;;;;5031823;28;20151;-70
2021/04/10 01:21:05;;;;;;;6.15;2.50;;;7.70;75.10;;;;;;5033844;28;20112;-69
2021/04/10 01:24:08;;;;;;;6.88;2.58;;;7.70;75.00;;;;;;5033735;28;20039;-70
2021/04/10 01:26:43;;;;;;;6.38;2.30;;;7.80;74.90;;;;;;5032541;28;20051;-70
2021/04/10 01:29:14;;;;;;;8.13;2.63;;;7.80;74.80;;;;;;5033877;28;20061;-70
2021/04/10 01:31:46;;;;;;;4.82;2.22;;;7.80;74.80;;;;;;5033893;28;20104;-69
2021/04/10 01:34:16;;;;;;;7.80;2.95;;;7.80;74.80;;;;;;5032341;28;20025;-69
2021/04/10 01:36:44;;;;;;;10.43;2.70;;;7.90;74.80;;;;;;5032374;28;20029;-70
2021/04/10 01:39:13;;;;;;;9.20;2.60;;;7.90;74.70;;;;;;5032202;28;20029;-70
2021/04/10 01:41:48;;;;;;;8.00;2.78;;;7.80;74.60;;;;;;5033777;28;20033;-70
2021/04/10 01:44:16;;;;;;;8.80;2.38;;;7.90;74.60;;;;;;5033401;28;20029;-70
2021/04/10 01:46:41;;;;;;;7.15;2.42;;;7.90;74.50;;;;;;5032087;28;20026;-70
2021/04/10 01:49:08;;;;;;;5.95;2.13;;;7.90;74.40;;;;;;5033511;28;20131;-70
2021/04/10 01:51:36;;;;;;;6.53;2.05;;;8.00;74.40;;;;;;5031978;28;20031;-69
2021/04/10 01:54:04;;;;;;;8.00;2.40;;;8.00;74.40;;;;;;5033317;28;20037;-70
2021/04/10 01:56:32;;;;;;;12.35;2.80;;;8.00;74.30;;;;;;5033278;28;20029;-70
2021/04/10 01:58:59;;;;;;;8.05;2.58;;;8.00;74.30;;;;;;5031857;28;20076;-71
2021/04/10 02:01:26;;;;;;;8.65;2.67;;;7.90;74.30;;;;;;5033138;28;20123;-70
2021/04/10 02:03:53;;;;;;;6.15;2.30;;;7.90;74.40;;;;;;5033068;28;20082;-70
2021/04/10 02:06:19;;;;;;;7.13;2.45;;;7.90;74.40;;;;;;5031655;28;20026;-69
2021/04/10 02:08:45;;;;;;;3.75;2.20;;;7.90;74.30;;;;;;5031729;28;20132;-70
2021/04/10 02:11:14;;;;;;;4.15;2.28;;;8.00;74.30;;;;;;5032979;28;20022;-70
2021/04/10 02:13:41;;;;;;;7.22;2.63;;;8.00;74.20;;;;;;5032761;28;20124;-70
2021/04/10 02:16:07;;;;;;;11.48;2.88;;;8.00;74.20;;;;;;5031642;28;20111;-70
2021/04/10 02:18:35;;;;;;;6.25;2.13;;;7.90;74.20;;;;;;5032921;28;20465;-70
2021/04/10 02:21:05;;;;;;;7.35;2.67;;;7.90;74.30;;;;;;5031453;28;20449;-70
2021/04/10 02:23:32;;;;;;;6.15;2.17;;;7.80;74.20;;;;;;5033179;28;20033;-70
2021/04/10 02:26:00;;;;;;;8.93;2.60;;;7.80;74.30;;;;;;5031585;28;20566;-71
2021/04/10 02:28:26;;;;;;;8.18;2.75;;;7.80;74.40;;;;;;5032943;28;20026;-70
2021/04/10 02:30:53;;;;;;;7.82;2.70;;;7.80;74.50;;;;;;5031725;28;20116;-70
2021/04/10 02:33:31;;;;;;;11.38;3.05;;;7.70;74.60;;;;;;5032759;28;20032;-70
2021/04/10 02:35:58;;;;;;;9.82;3.30;;;7.60;74.70;;;;;;5031554;28;20014;-70
2021/04/10 02:38:27;;;;;;;5.47;2.45;;;7.60;74.80;;;;;;5031566;28;20071;-70
2021/04/10 02:41:14;;;;;;;6.25;2.70;;;7.60;75.00;;;;;;5031740;28;20070;-70
2021/04/10 02:43:45;;;;;;;6.32;2.70;;;7.50;75.10;;;;;;5032745;28;20078;-70
2021/04/10 02:46:14;;;;;;;8.27;2.72;;;7.50;75.40;;;;;;5031320;28;20074;-70
2021/04/10 02:48:58;;;;;;;9.23;3.72;;;7.50;75.40;;;;;;5032619;28;20152;-70
2021/04/10 02:51:31;;;;;;;6.90;2.72;;;7.40;75.60;;;;;;5032660;28;20022;-69
2021/04/10 02:53:57;;;;;;;8.20;2.92;;;7.40;75.70;;;;;;5031346;28;20025;-69
2021/04/10 02:56:26;;;;;;;5.32;2.63;;;7.40;75.70;;;;;;5032546;28;20469;-70
2021/04/10 02:58:53;;;;;;;7.00;2.70;;;7.40;75.80;;;;;;5032643;28;20480;-70
2021/04/10 03:01:20;;;;;;;10.68;3.30;;;7.30;75.70;;;;;;5032630;28;20021;-70
2021/04/10 03:03:48;;;;;;;6.60;3.15;;;7.30;75.90;;;;;;5033004;28;20092;-70
2021/04/10 03:06:15;;;;;;;6.75;3.75;;;7.30;76.10;;;;;;5032577;28;20083;-70
2021/04/10 03:08:41;;;;;;;7.40;3.20;;;7.20;76.10;;;;;;5032511;28;20107;-70
2021/04/10 03:11:08;;;;;;;8.00;3.20;;;7.20;76.20;;;;;;5032573;28;20053;-70
2021/04/10 03:13:34;;;;;;;9.65;3.33;;;7.20;76.40;;;;;;5032590;28;20025;-70
2021/04/10 03:16:00;;;;;;;10.15;3.17;;;7.20;76.50;;;;;;5032658;28;20378;-70
2021/04/10 03:18:26;;;;;;;8.80;3.10;;;7.20;76.60;;;;;;5027107;28;20124;-70
2021/04/10 03:20:52;;;;;;;6.70;3.10;;;7.10;76.60;;;;;;5032727;28;20112;-70
2021/04/10 03:23:18;;;;;;;8.68;3.38;;;7.10;76.80;;;;;;5031574;28;20117;-70
2021/04/10 03:25:44;;;;;;;9.02;3.17;;;7.10;76.90;;;;;;5036232;28;20505;-70
2021/04/10 03:28:11;;;;;;;9.52;3.00;;;7.10;76.90;;;;;;5036175;28;20112;-70
2021/04/10 03:30:37;;;;;;;6.18;2.88;;;7.00;77.00;;;;;;5035163;28;20414;-70
2021/04/10 03:33:03;;;;;;;8.52;2.83;;;7.00;77.00;;;;;;5034830;28;20068;-70
2021/04/10 03:35:30;;;;;;;6.90;2.72;;;7.00;77.00;;;;;;5034795;28;20338;-70
2021/04/10 03:37:57;;;;;;;7.03;2.88;;;7.00;77.00;;;;;;5036038;28;20481;-69
2021/04/10 03:40:23;;;;;;;6.25;2.53;;;7.00;77.00;;;;;;5035927;28;20427;-70
2021/04/10 03:42:49;;;;;;;11.25;3.78;;;7.00;77.00;;;;;;5035962;28;20044;-70
2021/04/10 03:45:17;;;;;;;5.10;2.72;;;7.00;77.20;;;;;;5034656;28;20385;-70
2021/04/10 03:47:43;;;;;;;9.07;3.65;;;7.00;77.10;;;;;;5035699;28;20148;-70
2021/04/10 03:50:10;;;;;;;10.88;3.35;;;7.00;77.20;;;;;;5034293;28;20036;-70
2021/04/10 03:52:36;;;;;;;5.85;2.90;;;7.00;77.30;;;;;;5035712;28;20025;-70
2021/04/10 03:55:03;;;;;;;4.95;3.22;;;7.00;77.20;;;;;;5034564;28;20022;-70
2021/04/10 03:57:29;;;;;;;7.63;3.22;;;7.10;77.30;;;;;;5035644;28;20049;-70
2021/04/10 03:59:54;;;;;;;7.07;2.85;;;7.10;77.30;;;;;;5034358;28;20144;-70
2021/04/10 04:02:20;;;;;;;8.23;3.33;;;7.10;77.20;;;;;;5035587;28;20501;-70
2021/04/10 04:04:46;;;;;;;7.78;3.47;;;7.10;77.20;;;;;;5035505;28;20036;-70
2021/04/10 04:07:12;;;;;;;5.80;2.92;;;7.10;77.10;;;;;;5033931;28;20079;-70
2021/04/10 04:09:38;;;;;;;8.63;3.47;;;7.10;77.20;;;;;;5036157;28;20472;-71
2021/04/10 04:12:04;;;;;;;9.05;3.70;;;7.10;77.10;;;;;;5034106;28;20033;-71
2021/04/10 04:14:30;;;;;;;7.72;3.33;;;7.10;77.10;;;;;;5035338;28;20365;-70
2021/04/10 04:16:56;;;;;;;8.55;3.60;;;7.10;77.00;;;;;;5031026;28;20125;-70
2021/04/10 04:19:22;;;;;;;5.55;3.20;;;7.20;77.00;;;;;;5032521;28;20037;-71
2021/04/10 04:21:47;;;;;;;10.48;3.83;;;7.20;76.90;;;;;;5034932;28;20446;-70
2021/04/10 04:24:13;;;;;;;5.10;3.33;;;7.20;76.90;;;;;;5035021;28;20080;-71
2021/04/10 04:26:39;;;;;;;6.65;3.30;;;7.20;76.90;;;;;;5033731;28;20120;-70
2021/04/10 04:29:04;;;;;;;9.70;3.50;;;7.20;76.90;;;;;;5035070;28;20333;-70
2021/04/10 04:31:30;;;;;;;6.47;3.22;;;7.20;77.00;;;;;;5035114;28;20366;-70
2021/04/10 04:33:56;;;;;;;10.82;3.50;;;7.20;77.00;;;;;;5033784;28;20025;-70
2021/04/10 04:36:24;;;;;;;7.35;3.28;;;7.10;76.90;;;;;;5034539;28;20053;-70
2021/04/10 04:38:50;;;;;;;8.48;3.20;;;7.10;76.90;;;;;;5033529;28;20095;-70
2021/04/10 04:41:16;;;;;;;8.98;4.18;;;7.20;77.00;;;;;;5033500;28;20033;-71
2021/04/10 04:43:41;;;;;;;7.28;3.30;;;7.10;76.90;;;;;;5034655;28;20025;-71
2021/04/10 04:46:07;;;;;;;9.10;3.30;;;7.10;76.90;;;;;;5035091;28;20034;-70
2021/04/10 04:48:34;;;;;;;9.90;3.65;;;7.10;76.90;;;;;;5034448;28;20520;-70
2021/04/10 04:51:02;;;;;;;16.55;8.65;;;7.10;76.90;;;;;;5034491;28;20051;-71
2021/04/10 04:53:28;;;;;;;8.55;4.75;;;7.20;76.90;;;;;;5034628;28;20072;-70
2021/04/10 04:59:16;;;;;;;6.53;3.20;;;7.30;76.70;;;;;;5034417;28;20395;-70
2021/04/10 05:01:41;;;;;;;7.88;3.50;;;7.30;76.50;;;;;;5033952;28;20032;-70
2021/04/10 05:04:07;;;;;;;8.43;3.40;;;7.30;76.50;;;;;;5034258;28;20385;-71
2021/04/10 05:06:33;;;;;;;4.97;2.83;;;7.30;76.60;;;;;;5032620;28;20037;-70
2021/04/10 05:08:58;;;;;;;9.52;3.38;;;7.30;76.50;;;;;;5032520;28;20032;-70
2021/04/10 05:11:24;;;;;;;9.00;3.15;;;7.20;76.50;;;;;;5033812;28;20135;-71
2021/04/10 05:13:53;;;;;;;9.90;3.28;;;7.20;76.40;;;;;;5033670;28;20040;-70
2021/04/10 05:16:18;;;;;;;7.00;2.70;;;7.30;76.40;;;;;;5033791;28;20053;-71
2021/04/10 05:18:44;;;;;;;9.93;3.20;;;7.30;76.40;;;;;;5032132;28;20374;-70
2021/04/10 05:21:09;;;;;;;7.20;3.28;;;7.20;76.40;;;;;;5033716;28;20069;-71
2021/04/10 05:23:37;;;;;;;9.85;3.00;;;7.20;76.40;;;;;;5034228;28;20032;-70
2021/04/10 05:26:03;;;;;;;7.32;3.17;;;7.20;76.40;;;;;;5032583;28;20029;-71
2021/04/10 05:28:28;;;;;;;6.88;3.22;;;7.20;76.50;;;;;;5032243;28;20043;-71
2021/04/10 05:30:54;;;;;;;6.00;2.78;;;7.20;76.40;;;;;;5033561;28;20033;-71
2021/04/10 05:33:22;;;;;;;8.63;3.03;;;7.20;76.40;;;;;;5032072;28;20032;-70
2021/04/10 05:35:48;;;;;;;4.82;2.75;;;7.10;76.40;;;;;;5032237;28;20025;-70
2021/04/10 05:38:14;;;;;;;7.50;3.17;;;7.20;76.40;;;;;;5032051;28;20048;-71
2021/04/10 05:40:39;;;;;;;7.25;2.67;;;7.20;76.30;;;;;;5033508;28;20107;-70
2021/04/10 05:43:05;;;;;;;6.40;2.90;;;7.20;76.30;;;;;;5032041;28;20041;-70
2021/04/10 05:45:30;;;;;;;7.10;3.10;;;7.20;76.20;;;;;;5033165;28;20400;-71
2021/04/10 05:47:56;;;;;;;5.97;2.80;;;7.20;76.20;;;;;;5033276;28;20065;-70
2021/04/10 05:50:22;;;;;;;7.85;2.83;;;7.20;76.10;;;;;;5031742;28;20022;-71
2021/04/10 05:52:47;;;;;;;7.18;2.88;;;7.30;76.20;;;;;;5033238;28;20044;-71
2021/04/10 05:55:13;;;;;;;8.68;2.90;;;7.30;76.70;;;;;;5031686;28;20065;-71
2021/04/10 05:57:39;;;;;;;8.23;2.83;;;7.30;76.00;;;;;;5031951;28;20124;-71
2021/04/10 06:00:05;;;;;;;9.32;2.55;;;7.40;75.80;;;;;;5031895;28;20040;-70
2021/04/10 06:02:35;;;;;;;7.90;2.25;;;7.40;75.70;;;;;;5031796;28;20061;-70
2021/04/10 06:05:00;;;;;;;7.38;2.60;;;7.40;75.50;;;;;;5031839;28;20029;-70
2021/04/10 06:07:26;;;;;;;8.90;2.70;;;7.40;75.30;;;;;;5032860;28;20044;-70
2021/04/10 06:09:52;;;;;;;7.65;3.10;;;7.40;75.30;;;;;;5033021;28;20108;-70
2021/04/10 06:12:17;;;;;;;8.63;2.70;;;7.50;75.30;;;;;;5032929;28;20030;-70
2021/04/10 06:14:46;;;;;;;7.35;2.60;;;7.50;75.20;;;;;;5031527;28;20025;-71
2021/04/10 06:17:12;;;;;;;4.78;2.28;;;7.50;75.10;;;;;;5032902;28;20115;-70
2021/04/10 06:19:37;;;;;;;6.47;2.80;;;7.60;75.10;;;;;;5032915;28;20069;-71
2021/04/10 06:22:03;;;;;;;9.38;2.83;;;7.50;74.90;;;;;;5032779;28;20452;-70
2021/04/10 06:24:34;;;;;;;8.63;3.17;;;7.60;74.90;;;;;;5033421;28;20037;-71
2021/04/10 06:27:00;;;;;;;7.40;2.90;;;7.60;74.90;;;;;;5031456;28;20026;-70
2021/04/10 06:29:28;;;;;;;7.00;2.55;;;7.60;74.80;;;;;;5032565;28;20043;-71
2021/04/10 06:31:54;;;;;;;10.45;2.92;;;7.70;74.80;;;;;;5033342;28;20104;-71
2021/04/10 06:34:19;;;;;;;6.10;2.55;;;7.70;74.60;;;;;;5032851;28;20160;-71
2021/04/10 06:36:45;;;;;;;6.78;2.60;;;7.80;74.60;;;;;;5032859;28;20061;-70
2021/04/10 06:39:10;;;;;;;5.28;2.60;;;7.80;74.40;;;;;;5033078;28;20022;-70
2021/04/10 06:41:48;;;;;;;6.10;2.63;;;7.80;74.20;;;;;;5032865;28;20123;-69
2021/04/10 06:44:13;;;;;;;6.82;2.40;;;7.90;74.10;;;;;;5032881;28;20033;-71
2021/04/10 06:46:40;;;;;;;7.43;2.90;;;7.90;74.00;;;;;;5031528;28;20037;-70
2021/04/10 06:49:08;;;;;;;8.75;2.40;;;8.00;73.90;;;;;;5031279;28;20067;-70
2021/04/10 06:51:37;;;;;;;5.28;2.20;;;8.00;73.90;;;;;;5032733;28;20380;-71
2021/04/10 06:54:06;;;;;;;5.63;2.67;;;8.00;73.70;;;;;;5032304;28;20033;-70
2021/04/10 06:56:35;;;;;;;6.00;2.78;;;8.00;73.80;;;;;;5032422;28;20388;-71
2021/04/10 06:59:04;;;;;;;7.28;2.30;;;8.10;73.70;;;;;;5033819;28;20515;-71
2021/04/10 07:01:30;;;;;;;4.65;2.40;;;8.10;73.60;;;;;;5036297;28;20032;-70
2021/04/10 07:03:56;;;;;;;5.82;2.47;;;8.20;73.50;;;;;;5036280;28;20033;-70
2021/04/10 07:06:22;;;;;;;6.55;2.25;;;8.20;73.80;;;;;;5036148;28;20175;-71
2021/04/10 07:08:48;;;;;;;6.00;2.10;;;8.30;73.10;;;;;;5034915;28;20025;-71
2021/04/10 07:11:15;;;;;;;5.80;2.20;;;8.30;73.00;;;;;;5034852;28;20021;-71
2021/04/10 07:13:42;;;;;;;8.27;2.20;;;8.30;72.80;;;;;;5034810;28;20025;-70
2021/04/10 07:16:08;;;;;;;4.63;1.92;;;8.40;72.70;;;;;;5034604;28;20132;-71
2021/04/10 07:18:35;;;;;;;4.95;1.90;;;8.40;72.70;;;;;;5028173;28;20042;-71
2021/04/10 07:21:20;;;;;;;6.32;2.10;;;8.40;72.40;;;;;;5035904;28;20038;-71
2021/04/10 07:23:54;;;;;;;6.60;2.08;;;8.40;72.40;;;;;;5034634;28;20025;-71
2021/04/10 07:26:40;;;;;;;5.28;2.10;;;8.50;72.50;;;;;;5035791;28;20044;-71
2021/04/10 07:29:28;;;;;;;4.28;1.75;;;8.50;72.30;;;;;;5035949;28;20115;-70
2021/04/10 07:31:54;;;;;;;6.65;2.20;;;8.50;72.10;;;;;;5021977;28;20428;-71
2021/04/10 07:34:21;;;;;;;4.05;2.00;;;8.60;72.00;;;;;;5036369;28;20041;-70
2021/04/10 07:36:58;;;;;;;8.23;3.33;;;8.60;71.80;;;;;;5035526;28;20029;-71
2021/04/10 07:39:26;;;;;;;5.40;2.22;;;8.60;71.80;;;;;;5034292;28;20056;-71
2021/04/10 07:42:00;;;;;;;4.25;2.08;;;8.70;71.80;;;;;;5035606;28;20026;-71
2021/04/10 07:44:36;;;;;;;;;;;8.80;71.70;;;;;;5034675;28;20211;-70
2021/04/10 07:47:07;;;;;;;5.85;1.75;;;8.80;71.50;;;;;;5034260;28;19909;-71
2021/04/10 07:49:33;;;;;;;6.05;2.15;;;8.90;72.00;;;;;;5035364;28;20345;-71
2021/04/10 07:52:07;;;;;;;9.82;2.40;;;9.00;71.20;;;;;;5035622;28;20025;-71
2021/04/10 07:54:38;;;;;;;3.97;1.73;;;9.00;70.80;;;;;;5035999;28;20029;-71
2021/04/10 07:57:09;;;;;;;5.40;2.08;;;9.10;70.90;;;;;;5035484;28;20025;-71
2021/04/10 07:59:50;;;;;;;4.55;2.05;;;9.20;70.80;;;;;;5034299;28;20503;-70
2021/04/10 08:02:17;;;;;;;5.18;2.25;;;9.20;70.50;;;;;;5034113;28;20370;-71
2021/04/10 08:05:00;;;;;;;6.70;2.40;;;9.30;70.20;;;;;;5034095;28;20087;-71
2021/04/10 08:07:31;;;;;;;4.45;1.73;;;9.40;70.00;;;;;;5033898;28;20099;-70
2021/04/10 08:10:05;;;;;;;4.40;1.88;;;9.40;69.90;;;;;;5034120;28;20116;-70
2021/04/10 08:12:33;;;;;;;5.82;1.70;;;9.40;69.90;;;;;;5035118;28;20449;-71
2021/04/10 08:15:01;;;;;;;4.15;1.60;;;9.40;69.80;;;;;;5035042;28;20100;-71
2021/04/10 08:17:41;;;;;;;3.55;1.80;;;9.40;69.70;;;;;;5035097;28;20037;-70
2021/04/10 08:20:27;;;;;;;5.47;1.88;;;9.40;69.50;;;;;;5034732;28;20493;-70
2021/04/10 08:23:13;;;;;;;5.28;1.88;;;9.40;69.50;;;;;;5034907;28;20048;-70
2021/04/10 08:25:39;;;;;;;6.15;1.80;;;9.40;69.40;;;;;;5034720;28;20477;-71
2021/04/10 08:28:05;;;;;;;9.13;2.72;;;9.50;69.40;;;;;;5033590;28;20455;-70
2021/04/10 08:30:31;;;;;;;7.43;1.90;;;9.60;69.70;;;;;;5033403;28;20021;-69
2021/04/10 08:32:57;;;;;;;4.07;2.10;;;9.60;69.00;;;;;;5033457;28;20056;-70
2021/04/10 08:35:23;;;;;;;5.60;1.90;;;9.70;68.90;;;;;;5034677;28;20037;-69
2021/04/10 08:37:58;;;;;;;3.38;2.00;;;9.80;68.80;;;;;;5034802;28;20037;-69
2021/04/10 08:40:25;;;;;;;5.13;1.80;;;9.90;68.60;;;;;;5033231;28;20121;-69
2021/04/10 08:42:54;;;;;;;5.57;2.05;;;10.00;68.40;;;;;;5033393;28;20132;-70
2021/04/10 08:45:24;;;;;;;10.63;3.90;;;10.00;68.10;;;;;;5034480;28;20108;-69
2021/04/10 08:47:49;;;;;;;7.13;2.90;;;10.10;68.00;;;;;;5034425;28;20426;-69
2021/04/10 08:50:15;;;;;;;6.10;2.20;;;10.10;68.00;;;;;;5033025;28;20017;-69
2021/04/10 08:52:41;;;;;;;10.02;2.50;;;10.10;67.90;;;;;;5034552;28;20052;-70
2021/04/10 08:55:10;;;;;;;5.40;2.92;;;10.20;67.90;;;;;;5034719;28;20032;-70
2021/04/10 08:57:43;;;;;;;7.38;2.30;;;10.20;67.70;;;;;;5034297;28;20113;-70
2021/04/10 09:00:22;;;;;;;4.87;1.63;;;10.30;67.40;;;;;;5034156;28;20108;-70
2021/04/10 09:02:59;;;;;;;5.32;1.98;;;10.50;67.40;;;;;;5032610;28;20503;-71
2021/04/10 09:05:44;;;;;;;6.60;1.90;;;10.60;67.00;;;;;;5033971;28;20030;-70
2021/04/10 09:08:21;;;;;;;4.13;1.90;;;10.70;66.90;;;;;;5033631;28;20062;-69
2021/04/10 09:10:48;;;;;;;4.85;1.70;;;10.70;66.60;;;;;;5034114;28;20029;-69
2021/04/10 09:13:17;;;;;;;7.68;2.20;;;10.80;66.50;;;;;;5032448;28;20026;-70
2021/04/10 09:15:43;;;;;;;4.63;1.90;;;10.90;66.30;;;;;;5032405;28;20120;-69
2021/04/10 09:18:10;;;;;;;5.70;1.83;;;10.90;66.10;;;;;;5029524;28;20030;-70
2021/04/10 09:20:45;;;;;;;4.50;1.73;;;11.00;66.00;;;;;;5030793;28;20103;-69
2021/04/10 09:23:34;;;;;;;5.65;2.20;;;11.10;65.80;;;;;;5032060;28;20091;-70
2021/04/10 09:26:17;;;;;;;5.13;1.98;;;11.10;65.50;;;;;;5032064;28;20030;-70
2021/04/10 09:28:54;;;;;;;5.07;1.95;;;11.10;65.00;;;;;;5032327;28;20457;-69
2021/04/10 09:31:40;;;;;;;8.10;2.13;;;11.00;64.90;;;;;;5033473;28;20037;-69
2021/04/10 09:34:26;;;;;;;3.50;1.70;;;10.90;65.00;;;;;;5033624;28;20025;-72
2021/04/10 09:36:51;;;;;;;9.13;2.63;;;10.80;65.00;;;;;;5032262;28;20515;-71
2021/04/10 09:39:52;;;;;;;3.95;1.60;;;10.80;65.20;;;;;;5033436;28;20025;-70
2021/04/10 09:45:30;;;;;;;4.55;1.50;;;10.60;65.40;;;;;;5033727;28;20041;-71
2021/04/10 09:50:31;;;;;;;5.68;2.00;;;10.60;65.60;;;;;;5033104;28;20025;-71
2021/04/10 09:52:59;;;;;;;3.75;1.60;;;10.60;65.50;;;;;;5032167;28;20030;-71
2021/04/10 09:55:27;;;;;;;10.80;4.35;;;10.60;65.60;;;;;;5033698;28;20449;-70
2021/04/10 09:58:09;;;;;;;9.90;3.75;;;10.60;65.60;;;;;;5033243;28;20033;-70
2021/04/10 10:00:36;;;;;;;6.60;2.90;;;10.60;65.50;;;;;;5033631;28;20469;-70
2021/04/10 10:03:04;;;;;;;7.90;2.78;;;10.60;65.50;;;;;;5031820;28;20025;-71
2021/04/10 10:05:35;;;;;;;6.30;2.25;;;10.50;65.30;;;;;;5033024;28;20087;-71
2021/04/10 10:08:08;;;;;;;7.50;2.50;;;10.50;65.50;;;;;;5031726;28;20124;-69
2021/04/10 10:10:38;;;;;;;5.72;2.45;;;10.40;65.70;;;;;;5031949;28;20021;-69
2021/04/10 10:13:04;;;;;;;8.23;2.08;;;10.40;65.70;;;;;;5033179;28;20029;-69
2021/04/10 10:15:30;;;;;;;6.88;2.00;;;10.40;65.90;;;;;;5033119;28;20033;-69
2021/04/10 10:17:56;;;;;;;6.78;2.00;;;10.40;65.80;;;;;;5033201;28;20048;-70
2021/04/10 10:20:22;;;;;;;8.27;2.42;;;10.30;65.80;;;;;;5029325;28;20034;-70
2021/04/10 10:22:48;;;;;;;8.35;2.63;;;10.40;65.90;;;;;;5031600;28;20056;-70
2021/04/10 10:25:14;;;;;;;6.32;2.90;;;10.30;65.80;;;;;;5032263;28;20025;-69
2021/04/10 10:27:45;;;;;;;6.63;2.40;;;10.40;65.80;;;;;;5031509;28;20026;-69
2021/04/10 10:30:19;;;;;;;5.70;2.08;;;10.40;65.70;;;;;;5032886;28;20118;-69
2021/04/10 10:32:50;;;;;;;7.85;2.28;;;10.30;65.70;;;;;;5032455;28;20033;-69
2021/04/10 10:35:18;;;;;;;7.70;2.28;;;10.40;65.90;;;;;;5031179;28;20032;-69
2021/04/10 10:37:50;;;;;;;8.13;2.20;;;10.40;65.90;;;;;;5032620;28;20033;-70
2021/04/10 10:40:22;;;;;;;7.10;2.70;;;10.40;65.70;;;;;;5032642;28;20026;-69
2021/04/10 10:42:57;;;;;;;6.30;2.40;;;10.40;65.80;;;;;;5032631;28;20041;-70
2021/04/10 10:45:47;;;;;;;5.65;2.17;;;10.30;65.90;;;;;;5032592;28;20030;-70
2021/04/10 10:48:37;;;;;;;7.68;2.65;;;10.20;66.10;;;;;;5032429;28;20033;-69
2021/04/10 10:51:04;;;;;;;5.75;2.47;;;10.20;66.30;;;;;;5032907;28;20408;-70
2021/04/10 10:53:39;;;;;;;8.85;2.80;;;10.10;66.50;;;;;;5032306;28;20108;-70
2021/04/10 10:56:07;;;;;;;9.43;2.78;;;10.10;66.80;;;;;;5031119;28;20025;-70
2021/04/10 10:58:34;;;;;;;7.93;2.60;;;10.10;67.00;;;;;;5032354;28;20436;-70
2021/04/10 11:01:01;;;;;;;11.82;3.15;;;10.10;67.20;;;;;;5032337;28;20397;-70
2021/04/10 11:03:27;;;;;;;8.35;2.80;;;10.10;67.20;;;;;;5032635;28;20033;-70
2021/04/10 11:05:54;;;;;;;7.38;2.42;;;10.20;67.30;;;;;;5031065;28;20021;-69
2021/04/10 11:08:22;;;;;;;7.78;2.58;;;10.20;67.30;;;;;;5031023;28;20124;-70
2021/04/10 11:10:49;;;;;;;6.05;2.53;;;10.20;67.40;;;;;;5032434;28;20385;-70
2021/04/10 11:13:17;;;;;;;6.43;2.45;;;10.10;67.50;;;;;;5032310;28;20025;-70
2021/04/10 11:15:44;;;;;;;8.35;2.80;;;10.10;67.70;;;;;;5032327;28;20029;-69
2021/04/10 11:18:27;;;;;;;9.13;3.30;;;10.20;67.70;;;;;;5030974;28;20053;-69
2021/04/10 11:21:11;;;;;;;8.65;2.95;;;10.20;67.70;;;;;;5030710;28;20045;-69
2021/04/10 11:24:05;;;;;;;6.18;2.70;;;10.30;67.80;;;;;;5032195;28;20029;-69
2021/04/10 11:26:33;;;;;;;6.80;2.80;;;10.30;67.80;;;;;;5030755;28;20049;-69
2021/04/10 11:29:23;;;;;;;7.15;2.88;;;10.40;67.80;;;;;;5031937;28;20244;-69
2021/04/10 11:32:14;;;;;;;7.63;2.95;;;10.50;67.90;;;;;;5030675;28;20032;-70
2021/04/10 11:34:43;;;;;;;5.95;3.22;;;10.40;67.90;;;;;;5032047;28;20109;-69
2021/04/10 11:37:10;;;;;;;7.35;3.30;;;10.40;68.00;;;;;;5030712;28;20064;-69
2021/04/10 11:39:56;;;;;;;8.18;3.30;;;10.40;68.10;;;;;;5032041;28;20037;-69
2021/04/10 11:42:22;;;;;;;7.15;3.67;;;10.40;68.30;;;;;;5032243;28;20025;-69
2021/04/10 11:44:48;;;;;;;7.40;3.67;;;10.40;68.40;;;;;;5031663;28;20034;-69
2021/04/10 11:47:29;;;;;;;7.72;3.78;;;10.40;68.50;;;;;;5034006;28;20033;-69
2021/04/10 11:50:16;;;;;;;7.18;3.75;;;10.30;68.60;;;;;;5034155;28;20033;-69
2021/04/10 11:52:43;;;;;;;9.18;4.68;;;10.30;68.80;;;;;;5034133;28;20060;-69
2021/04/10 11:55:19;;;;;;;21.92;11.77;;;10.20;69.00;;;;;;5034273;28;20087;-71
2021/04/10 11:57:55;;;;;;;12.80;7.35;;;10.30;69.30;;;;;;5034294;28;20026;-70
2021/04/10 12:00:26;;;;;;;10.75;6.75;;;10.20;69.50;;;;;;5035443;28;20063;-70
2021/04/10 12:02:52;;;;;;;12.18;6.40;;;10.20;69.70;;;;;;5034067;28;20376;-70
2021/04/10 12:05:42;;;;;;;11.05;6.90;;;10.20;69.80;;;;;;5035339;28;20108;-70
2021/04/10 12:08:13;;;;;;;12.52;7.20;;;10.10;70.00;;;;;;5025580;28;20491;-70
2021/04/10 12:10:43;;;;;;;11.00;6.72;;;10.10;70.10;;;;;;5035514;28;20028;-70
2021/04/10 12:13:10;;;;;;;11.07;6.82;;;10.00;70.20;;;;;;5035320;28;20136;-69
2021/04/10 12:15:37;;;;;;;12.10;7.38;;;10.10;70.20;;;;;;5034089;28;20080;-68
2021/04/10 12:18:06;;;;;;;12.98;7.30;;;10.10;70.40;;;;;;5033916;28;20029;-69
2021/04/10 12:20:32;;;;;;;10.80;7.38;;;10.00;70.40;;;;;;5034868;28;20500;-69
2021/04/10 12:22:58;;;;;;;11.45;7.90;;;10.00;70.60;;;;;;5033607;28;20033;-68
2021/04/10 12:25:23;;;;;;;12.60;7.35;;;9.90;70.80;;;;;;5033715;28;20033;-69
2021/04/10 12:27:51;;;;;;;11.82;8.45;;;9.90;71.00;;;;;;5033503;28;20108;-70
2021/04/10 12:30:17;;;;;;;12.50;8.50;;;9.90;71.20;;;;;;5033413;28;20091;-69
2021/04/10 12:32:43;;;;;;;12.32;8.60;;;10.00;71.20;;;;;;5033434;28;20029;-70
2021/04/10 12:35:10;;;;;;;11.82;7.97;;;10.00;71.20;;;;;;5035240;28;20104;-70
2021/04/10 12:37:36;;;;;;;10.70;8.27;;;10.00;71.30;;;;;;5034885;28;20030;-70
2021/04/10 12:40:03;;;;;;;14.43;8.68;;;10.00;71.40;;;;;;5033126;28;20124;-70
2021/04/10 12:42:29;;;;;;;11.27;8.25;;;9.90;71.60;;;;;;5034575;28;20064;-69
2021/04/10 12:44:55;;;;;;;8.73;6.53;;;9.80;71.90;;;;;;5033554;28;20049;-69
2021/04/10 12:47:21;;;;;;;13.32;7.85;;;9.70;72.20;;;;;;5033220;28;20025;-69
2021/04/10 12:49:48;;;;;;;10.93;7.43;;;9.60;72.30;;;;;;5034213;28;20032;-69
2021/04/10 12:52:14;;;;;;;10.43;7.28;;;9.60;72.70;;;;;;5034312;28;20457;-69
2021/04/10 12:54:40;;;;;;;11.90;6.82;;;9.50;72.90;;;;;;5033066;28;20078;-70
2021/04/10 12:57:06;;;;;;;13.15;7.30;;;9.40;73.00;;;;;;5033513;28;20029;-70
2021/04/10 12:59:33;;;;;;;13.48;7.07;;;9.40;73.20;;;;;;5034308;28;20096;-70
2021/04/10 13:01:59;;;;;;;9.75;6.95;;;9.40;73.40;;;;;;5034223;28;20041;-70
2021/04/10 13:04:27;;;;;;;11.52;6.40;;;9.30;73.60;;;;;;5032902;28;20025;-70
2021/04/10 13:06:57;;;;;;;11.38;6.25;;;9.30;73.70;;;;;;5034744;28;20064;-71
2021/04/10 13:09:23;;;;;;;10.05;6.72;;;9.30;73.90;;;;;;5034112;28;20043;-70
2021/04/10 13:11:50;;;;;;;9.30;6.32;;;9.30;74.20;;;;;;5034500;28;20065;-70
2021/04/10 13:14:17;;;;;;;9.50;6.70;;;9.20;74.20;;;;;;5034646;28;20122;-70